RYR69UA EPKK-LIRA
Flight info
| Callsign | RYR69UA |
|---|---|
| Flight time | N/A |
| Altitude | 38000 |
| Route | BABKO DCT VADEX DCT KOPAT DCT BABNI DCT MAREG DCT GIRDA DCT BAXON/N0446F370 DCT UNUMU DCT IPGOR/N0341F190 Y106 GITOD |
| Aircraft | B38M/M-SDE1FGHILORVWXY/HB1 |
Departure
| Time | 2026-05-07 14:41 |
|---|---|
| Airport | Kraków John Paul II International Airport (EPKK) |
Arrival
| Time | N/A |
|---|---|
| Airport | Ciampino–G. B. Pastine International Airport (LIRA) |
| Time | Latitude | Longitude | Altitude | Speed | Heading |
|---|---|---|---|---|---|
| 2026-05-07 14:18 | 50.07414 | 19.80451 | 802 ft | 0 kts | 107° |
| 2026-05-07 14:31 | 50.07416 | 19.80441 | 802 ft | 2 kts | 107° |
| 2026-05-07 14:31 | 50.07422 | 19.80411 | 802 ft | 3 kts | 107° |
| 2026-05-07 14:31 | 50.07428 | 19.80382 | 802 ft | 3 kts | 112° |
| 2026-05-07 14:32 | 50.07436 | 19.80355 | 802 ft | 3 kts | 115° |
| 2026-05-07 14:32 | 50.07442 | 19.80329 | 802 ft | 3 kts | 85° |
| 2026-05-07 14:32 | 50.07438 | 19.80300 | 802 ft | 3 kts | 77° |
| 2026-05-07 14:32 | 50.07436 | 19.80282 | 802 ft | 0 kts | 77° |
| 2026-05-07 14:37 | 50.07436 | 19.80284 | 802 ft | 1 kts | 77° |
| 2026-05-07 14:37 | 50.07493 | 19.80387 | 802 ft | 13 kts | 20° |
| 2026-05-07 14:37 | 50.07585 | 19.80419 | 802 ft | 15 kts | 357° |
| 2026-05-07 14:38 | 50.07688 | 19.80389 | 802 ft | 16 kts | 348° |
| 2026-05-07 14:38 | 50.07801 | 19.80350 | 802 ft | 16 kts | 348° |
| 2026-05-07 14:38 | 50.07838 | 19.80338 | 802 ft | 0 kts | 348° |
| 2026-05-07 14:39 | 50.07856 | 19.80332 | 802 ft | 6 kts | 348° |
| 2026-05-07 14:40 | 50.07931 | 19.80307 | 802 ft | 17 kts | 348° |
| 2026-05-07 14:40 | 50.08006 | 19.80241 | 802 ft | 17 kts | 295° |
| 2026-05-07 14:40 | 50.07986 | 19.80018 | 803 ft | 18 kts | 257° |
| 2026-05-07 14:40 | 50.07968 | 19.79896 | 802 ft | 17 kts | 257° |
| 2026-05-07 14:41 | 50.07932 | 19.79634 | 803 ft | 41 kts | 257° |
| 2026-05-07 14:41 | 50.07812 | 19.78785 | 805 ft | 119 kts | 258° |
| 2026-05-07 14:41 | 50.07587 | 19.77209 | 824 ft | 180 kts | 255° |
| 2026-05-07 14:41 | 50.07325 | 19.75206 | 1484 ft | 197 kts | 258° |
| 2026-05-07 14:42 | 50.07029 | 19.73087 | 2599 ft | 200 kts | 257° |
| 2026-05-07 14:42 | 50.06719 | 19.71014 | 3442 ft | 214 kts | 257° |
| 2026-05-07 14:42 | 50.06376 | 19.68647 | 4026 ft | 232 kts | 257° |
| 2026-05-07 14:42 | 50.05711 | 19.66392 | 5053 ft | 232 kts | 230° |
| 2026-05-07 14:43 | 50.04381 | 19.64905 | 5586 ft | 241 kts | 201° |
| 2026-05-07 14:43 | 50.02754 | 19.64696 | 5714 ft | 246 kts | 172° |
| 2026-05-07 14:43 | 50.01075 | 19.65342 | 5886 ft | 249 kts | 171° |
| 2026-05-07 14:43 | 49.99433 | 19.65904 | 5964 ft | 249 kts | 171° |
| 2026-05-07 14:44 | 49.97770 | 19.66468 | 5981 ft | 249 kts | 171° |
| 2026-05-07 14:44 | 49.96874 | 19.66772 | 5991 ft | 248 kts | 171° |
| 2026-05-07 14:44 | 49.94764 | 19.67488 | 5994 ft | 248 kts | 171° |
| 2026-05-07 14:44 | 49.93090 | 19.68052 | 5972 ft | 248 kts | 171° |
| 2026-05-07 14:45 | 49.91381 | 19.68629 | 5907 ft | 248 kts | 171° |
| 2026-05-07 14:45 | 49.89715 | 19.69192 | 5830 ft | 246 kts | 171° |
| 2026-05-07 14:45 | 49.88037 | 19.69357 | 5736 ft | 240 kts | 194° |
| 2026-05-07 14:45 | 49.86564 | 19.68415 | 5974 ft | 239 kts | 210° |
| 2026-05-07 14:46 | 49.85105 | 19.67262 | 6811 ft | 246 kts | 208° |
| 2026-05-07 14:46 | 49.83524 | 19.65989 | 7388 ft | 264 kts | 209° |
| 2026-05-07 14:46 | 49.81897 | 19.64642 | 8245 ft | 267 kts | 209° |
| 2026-05-07 14:46 | 49.80267 | 19.63273 | 9185 ft | 270 kts | 210° |
| 2026-05-07 14:47 | 49.78637 | 19.61891 | 10052 ft | 274 kts | 210° |
| 2026-05-07 14:47 | 49.76891 | 19.60401 | 10660 ft | 290 kts | 210° |
| 2026-05-07 14:47 | 49.75690 | 19.59373 | 10925 ft | 304 kts | 210° |
| 2026-05-07 14:47 | 49.73785 | 19.57742 | 11424 ft | 317 kts | 210° |
| 2026-05-07 14:48 | 49.71203 | 19.55528 | 12492 ft | 321 kts | 209° |
| 2026-05-07 14:48 | 49.69912 | 19.54423 | 13029 ft | 324 kts | 209° |
| 2026-05-07 14:48 | 49.67929 | 19.52725 | 13795 ft | 327 kts | 209° |
| 2026-05-07 14:48 | 49.65957 | 19.51037 | 14493 ft | 330 kts | 209° |
| 2026-05-07 14:49 | 49.63967 | 19.49335 | 15159 ft | 333 kts | 209° |
| 2026-05-07 14:49 | 49.61971 | 19.47617 | 15828 ft | 334 kts | 211° |
| 2026-05-07 14:49 | 49.60197 | 19.45283 | 16476 ft | 338 kts | 227° |
| 2026-05-07 14:49 | 49.58600 | 19.42646 | 17097 ft | 340 kts | 224° |
| 2026-05-07 14:50 | 49.56949 | 19.39997 | 17731 ft | 343 kts | 225° |
| 2026-05-07 14:50 | 49.55319 | 19.37361 | 18351 ft | 345 kts | 225° |
| 2026-05-07 14:50 | 49.53674 | 19.34688 | 18917 ft | 346 kts | 225° |
| 2026-05-07 14:50 | 49.52015 | 19.31988 | 19464 ft | 347 kts | 225° |
| 2026-05-07 14:51 | 49.50367 | 19.29304 | 20058 ft | 347 kts | 225° |